Kakushu Maru — JG5688 — position and weather

sailwx.info

Track history (hours):
 
Tides and Currents Weather Stations Pressure Air Temp Water Temp Dewpoint Dewpoint Depression Visibility Wind Speed Wind Dir Waves Ship Positions

Kakushu Maru

Last reported at 2014-Sep-18 07:18 UTC. Time now 2014-Sep-21 22:14 UTC.
Position N 36°01' E 140°44'.

Length 105 m; draft 6.6 m.

Type: Tanker. MMSI: 431101016.

Date/timePositionNaut miles runAvg speedWind from/ knotsBaromVisibWave heightAir tempDewpointWater temp
2014-Sep-18 07:18N 36°01' E 140°44'7 8.7
2014-Sep-18 06:33N 35°55' E 140°41'0 0.0
2014-Sep-17 23:17N 35°55' E 140°41'6 7.0
2014-Sep-17 22:27N 36°00' E 140°43'0 0.2
2014-Sep-17 21:30N 36°00' E 140°42'0 0.0
2014-Sep-17 20:24N 36°00' E 140°42'0 0.0
2014-Sep-17 18:06N 36°00' E 140°42'0 0.0
2014-Sep-17 17:30N 36°00' E 140°42'0 0.0
2014-Sep-17 16:09N 36°00' E 140°42'0 0.1
2014-Sep-17 15:15N 36°00' E 140°42'0 0.0
2014-Sep-17 14:24N 36°00' E 140°42'0 0.1
2014-Sep-17 13:13N 36°00' E 140°42'  
2014-Sep-12 11:33N 36°44' E 141°03'2912.5
2014-Sep-12 09:13N 36°16' E 140°51'2213.0
2014-Sep-12 07:33N 35°56' E 140°42'1 0.1
2014-Sep-11 23:32N 35°55' E 140°41'4 3.8
2014-Sep-11 22:32N 35°57' E 140°45'0 0.0
2014-Sep-11 21:26N 35°57' E 140°45'0 0.1
2014-Sep-11 20:32N 35°57' E 140°45'0 0.0
2014-Sep-11 19:29N 35°57' E 140°45'0 0.0
2014-Sep-11 18:29N 35°57' E 140°45'0 0.0
2014-Sep-11 17:32N 35°57' E 140°45'0 0.0
2014-Sep-11 16:32N 35°57' E 140°45'0 0.0
2014-Sep-11 15:32N 35°57' E 140°45'4 4.2
2014-Sep-11 14:34N 35°53' E 140°48'1413.4
2014-Sep-11 13:29N 35°40' E 140°55'1314.2
2014-Sep-11 12:33N 35°29' E 140°47'1514.5
2014-Sep-11 11:33N 35°16' E 140°38'1616.5
2014-Sep-11 10:33N 35°04' E 140°25'1716.8
2014-Sep-11 09:33N 34°55' E 140°08'1615.1
2014-Sep-11 08:32N 34°50' E 139°50'1212.3
2014-Sep-11 07:33N 35°01' E 139°43'1413.7
2014-Sep-11 06:33N 35°14' E 139°46'1211.5
2014-Sep-11 05:33N 35°25' E 139°44'6 5.2
2014-Sep-11 04:29N 35°31' E 139°46'0 0.0
2014-Sep-11 02:23N 35°31' E 139°46'0 0.0
2014-Sep-11 01:29N 35°31' E 139°46'0 0.0
2014-Sep-11 00:32N 35°31' E 139°46'4 4.3
2014-Sep-10 23:34N 35°29' E 139°42'1010.3
2014-Sep-10 22:33N 35°18' E 139°44'1212.5
2014-Sep-10 21:33N 35°06' E 139°46'19 8.9
2014-Sep-10 19:28N 34°52' E 140°01'1011.2
2014-Sep-10 18:33N 34°57' E 140°12'1110.7
2014-Sep-10 17:30N 35°02' E 140°24'1010.6
2014-Sep-10 16:33N 35°09' E 140°33'1311.7
2014-Sep-10 15:25N 35°20' E 140°43'1313.3
2014-Sep-10 14:28N 35°30' E 140°51'1512.9
2014-Sep-10 13:19N 35°43' E 141°01'1413.5
2014-Sep-10 12:15N 35°57' E 141°03'  
Track history (hours):
 
Tides and Currents Weather Stations Pressure Air Temp Water Temp Dewpoint Dewpoint Depression Visibility Wind Speed Wind Dir Waves Ship Positions

Kakushu Maru

Last reported at 2014-Sep-18 07:18 UTC. Time now 2014-Sep-21 22:14 UTC.
Position N 36°01' E 140°44'.

Length 105 m; draft 6.6 m.

Type: Tanker. MMSI: 431101016.

Date/timePositionNaut miles runAvg speedWind from/ knotsBaromVisibWave heightAir tempDewpointWater temp
2014-Sep-18 07:18N 36°01' E 140°44'7 8.7
2014-Sep-18 06:33N 35°55' E 140°41'0 0.0
2014-Sep-17 23:17N 35°55' E 140°41'6 7.0
2014-Sep-17 22:27N 36°00' E 140°43'0 0.2
2014-Sep-17 21:30N 36°00' E 140°42'0 0.0
2014-Sep-17 20:24N 36°00' E 140°42'0 0.0
2014-Sep-17 18:06N 36°00' E 140°42'0 0.0
2014-Sep-17 17:30N 36°00' E 140°42'0 0.0
2014-Sep-17 16:09N 36°00' E 140°42'0 0.1
2014-Sep-17 15:15N 36°00' E 140°42'0 0.0
2014-Sep-17 14:24N 36°00' E 140°42'0 0.1
2014-Sep-17 13:13N 36°00' E 140°42'  
2014-Sep-12 11:33N 36°44' E 141°03'2912.5
2014-Sep-12 09:13N 36°16' E 140°51'2213.0
2014-Sep-12 07:33N 35°56' E 140°42'1 0.1
2014-Sep-11 23:32N 35°55' E 140°41'4 3.8
2014-Sep-11 22:32N 35°57' E 140°45'0 0.0
2014-Sep-11 21:26N 35°57' E 140°45'0 0.1
2014-Sep-11 20:32N 35°57' E 140°45'0 0.0
2014-Sep-11 19:29N 35°57' E 140°45'0 0.0
2014-Sep-11 18:29N 35°57' E 140°45'0 0.0
2014-Sep-11 17:32N 35°57' E 140°45'0 0.0
2014-Sep-11 16:32N 35°57' E 140°45'0 0.0
2014-Sep-11 15:32N 35°57' E 140°45'4 4.2
2014-Sep-11 14:34N 35°53' E 140°48'1413.4
2014-Sep-11 13:29N 35°40' E 140°55'1314.2
2014-Sep-11 12:33N 35°29' E 140°47'1514.5
2014-Sep-11 11:33N 35°16' E 140°38'1616.5
2014-Sep-11 10:33N 35°04' E 140°25'1716.8
2014-Sep-11 09:33N 34°55' E 140°08'1615.1
2014-Sep-11 08:32N 34°50' E 139°50'1212.3
2014-Sep-11 07:33N 35°01' E 139°43'1413.7
2014-Sep-11 06:33N 35°14' E 139°46'1211.5
2014-Sep-11 05:33N 35°25' E 139°44'6 5.2
2014-Sep-11 04:29N 35°31' E 139°46'0 0.0
2014-Sep-11 02:23N 35°31' E 139°46'0 0.0
2014-Sep-11 01:29N 35°31' E 139°46'0 0.0
2014-Sep-11 00:32N 35°31' E 139°46'4 4.3
2014-Sep-10 23:34N 35°29' E 139°42'1010.3
2014-Sep-10 22:33N 35°18' E 139°44'1212.5
2014-Sep-10 21:33N 35°06' E 139°46'19 8.9
2014-Sep-10 19:28N 34°52' E 140°01'1011.2
2014-Sep-10 18:33N 34°57' E 140°12'1110.7
2014-Sep-10 17:30N 35°02' E 140°24'1010.6
2014-Sep-10 16:33N 35°09' E 140°33'1311.7
2014-Sep-10 15:25N 35°20' E 140°43'1313.3
2014-Sep-10 14:28N 35°30' E 140°51'1512.9
2014-Sep-10 13:19N 35°43' E 141°01'1413.5
2014-Sep-10 12:15N 35°57' E 141°03'  

Dump ship's entire track history